Pagina principale
METAR-TAF:

METAR-TAF

Aeroporti :

Aeroporto di Chengdu-Shuangliu

Chengdu, Cina

latitudine: 30-40N, longitudine: 104-01E, altezza: 508 m

Osservazione

Il bollettino è stato emesso 32 minuti fa, alle 06:00 UTC
Vento 4 kt da nord, variando fra nord-ovest e nord/nord-est
Temperature 22°C
Umidità 100%
Pressione 1016 hPa
Visibilità: 6000 m
Poco nuvoloso ad un'altezza di 400 ft
Nubi sparse ad un'altezza di 1000 ft
Nuvoloso ad un'altezza di 3000 ft

METAR: ZUUU 230600Z 01002MPS 320V030 6000 FEW004 SCT010 BKN030 22/22 Q1016 NOSIG

Ora: 14:32 (06:32 UTC)

Previsione

Il bollettino è stato emesso 4 ore e 20 minuti fa, alle 02:12 UTC
Previsione valida dal 23 alle 06 UTC al 24 alle 06 UTC
Vento 6 kt da nord/nord-est
Visibilità: 3500 m
Poco nuvoloso ad un'altezza di 700 ft
Nubi sparse ad un'altezza di 4000 ft
rovesci di pioggia, foschia

TAF: ZUUU 230212Z 2306/2406 02003MPS 3500 -SHRA BR FEW007 SCT040 TX25/2307Z TN19/2323Z

Osservazioni e previsioni meteorologiche di più di 4000 aeroporti (messaggi METAR e TAF).

Le stazioni disponibili sono rappresentate dai dischi gialli e rossi sulla carta.

Puntare il mouse per vedere il nome della stazione.

Clicca sopra per visualizzare le osservazioni e previsioni meteorologiche.

Per cambiare la mappa : fare clic sui pulsanti verdi con una croce nera per ingrandire, il pulsante verde con un trattino per diminuire, o sulla freccia verde per le mappe adiacenti.


METAR-TAF: